Terminal Aerodrome Forecast
Issued by NWS

Home | Current Version | Previous Version | Text Only | Print | Product List | Glossary On
Versions: 1 2 3 4 5 6 7 8 9 10 11 12 13 14 15 16 17
466
FTUS43 KDVN 250123 AAA
TAFBRL
TAF AMD
KBRL 250123Z 2501/2524 32007KT 4SM RA BR VCTS BKN025CB OVC250
      TEMPO 2501/2503 2SM TSRA BR OVC025CB
     FM250400 34005KT P6SM BKN250
     FM251500 35008KT P6SM SKC=

USA.gov is the U.S. government's official web portal to all federal, state and local government web resources and services.